Cut Bank, MT

3:55 PM MDT on October 23, 2014 (GMT -0600)
Great Falls International | Change Station
CLOSE
Current Station
Airport
Location: Great Falls,
Elevation: 3658 ft
Nearby Weather Stations

Elev 3658 ft 47.47 °N, 111.38 °W | Updated 1 hour ago

Clear
Clear
61 °F
Feels Like 61 °F
N
20
Wind Variable Wind from SW
Gusts 30 mph

Today
High -- | Low -- °F
--% Chance of Precip.
Yesterday
High -- | Low -- °F
Precip. -- in
8:01 AM 6:24 PM
Waning Crescent, 0% visible
Pressure 29.76 in
Visibility 10.0 miles
Clouds Clear
Dew Point 38 °F
Humidity 42%
Rainfall 0.00 in
Snow Depth Not available.
UV 3 out of 12
Pollen .40 out of 12
Air Quality Not available.
Flu Activity Not available.
METAR KGTF 232053Z 22017G26KT 10SM CLR 16/03 A2978 RMK AO2 PK WND 22027/2040 SLP076 T01610033 58012

More Conditions Fewer Conditions

Pressure 29.76 in
Visibility 10.0 miles
Clouds Clear
Dew Point 38 °F
Humidity 42%
Rainfall 0.00 in
Snow Depth Not available.
UV 3 out of 12
Pollen .40 out of 12
Air Quality Not available.
Flu Activity Not available.
METAR KGTF 232053Z 22017G26KT 10SM CLR 16/03 A2978 RMK AO2 PK WND 22027/2040 SLP076 T01610033 58012

More Conditions Fewer Conditions

10-Day Weather Forecast

Almanac

Astronomy

Oct. 23, 2014 Rise Set
Actual Time 8:01 AM MDT 6:24 PM MDT
Civil Twilight 7:29 AM MDT 6:56 PM MDT
Nautical Twilight 6:52 AM MDT 7:33 PM MDT
Astronomical Twilight 6:16 AM MDT 8:09 PM MDT
Moon 7:43 AM MDT 6:28 PM MDT
Length of Visible Light 11h 27m
Length of Day
10h 22m
Tomorrow will be 3m 21s shorter.
Waning Crescent, 0% of the Moon is Illuminated
Today
Waning Crescent
Oct 23
New
Oct 30
First Quarter
Nov 6
Full
Nov 14
Last Quarter

Today's Extremes

State Highs State Lows

Community

WunderPhotos

Upload Photos

1,764,381 photos uploaded!

WunderBlogs® & News

Nearby

Snow Depth

Station Depth Elevation
Dupuyer Creek 0 in 5750 ft
Badger Pass 1 in 6900 ft
Pike Creek 0 in 5930 ft
Mount Lockhart 0 in 6400 ft
Many Glacier 0 in 4900 ft

Earthquake Activity

City Distance Mag. Time & Date
No recent earthquake activity has been reported nearby.
Minimum magnitude displayed is 2.5.

Coastal Water Temperatures

Place Temperature
No Stations Reporting

Nearby Weather Stations